Time;durP1;ratioP1;P1;durP2;ratioP2;P2;SDS_P1;SDS_P2;PMS_P1;PMS_P2;Temp;Humidity;BMP_temperature;BMP_pressure;BME280_temperature;BME280_humidity;BME280_pressure;Samples;Min_cycle;Max_cycle;Signal;HPM_P1;HPM_P2
2023/06/18 00:01:11;;;;;;;29.33;26.58;;;;;;;;;;5068309;28;20046;-76
2023/06/18 00:03:36;;;;;;;26.33;24.08;;;;;;;;;;5071778;28;20019;-77
2023/06/18 00:06:01;;;;;;;25.73;23.30;;;;;;;;;;5073597;28;20027;-80
2023/06/18 00:08:27;;;;;;;25.52;23.23;;;;;;;;;;5078409;28;20103;-78
2023/06/18 00:10:52;;;;;;;25.90;23.25;;;;;;;;;;5072566;28;20064;-77
2023/06/18 00:13:18;;;;;;;26.20;23.77;;;;;;;;;;5084090;28;20054;-78
2023/06/18 00:15:43;;;;;;;26.52;24.10;;;;;;;;;;5078171;28;20089;-77
2023/06/18 00:18:09;;;;;;;25.50;23.08;;;;;;;;;;5076912;28;20102;-77
2023/06/18 00:20:35;;;;;;;25.75;23.10;;;;;;;;;;5084038;28;20067;-76
2023/06/18 00:23:00;;;;;;;26.55;24.05;;;;;;;;;;5082082;28;20056;-76
2023/06/18 00:25:26;;;;;;;25.60;23.15;;;;;;;;;;5071115;28;20032;-76
2023/06/18 00:27:51;;;;;;;26.88;24.33;;;;;;;;;;5082205;28;20081;-78
2023/06/18 00:30:17;;;;;;;26.25;24.02;;;;;;;;;;5077000;28;20105;-76
2023/06/18 00:32:44;;;;;;;27.65;25.13;;;;;;;;;;5073830;28;20037;-76
2023/06/18 00:35:14;;;;;;;28.02;25.25;;;;;;;;;;5083892;28;20036;-76
2023/06/18 00:37:43;;;;;;;27.85;25.10;;;;;;;;;;5082257;28;20122;-77
2023/06/18 00:40:09;;;;;;;27.00;24.58;;;;;;;;;;5073370;28;20028;-77
2023/06/18 00:42:36;;;;;;;25.67;23.35;;;;;;;;;;5083704;28;20042;-75
2023/06/18 00:45:03;;;;;;;26.25;23.83;;;;;;;;;;5081062;28;20024;-76
2023/06/18 00:47:28;;;;;;;26.80;24.52;;;;;;;;;;5071879;28;20024;-78
2023/06/18 00:49:55;;;;;;;28.00;25.10;;;;;;;;;;5082266;28;20246;-79
2023/06/18 00:52:23;;;;;;;26.45;24.08;;;;;;;;;;5083487;28;20032;-77
2023/06/18 00:54:49;;;;;;;25.35;22.95;;;;;;;;;;5070207;28;20020;-79
2023/06/18 00:57:15;;;;;;;24.85;22.70;;;;;;;;;;5081639;28;20359;-77
2023/06/18 00:59:42;;;;;;;25.25;22.80;;;;;;;;;;5084817;28;20119;-75
2023/06/18 01:02:08;;;;;;;28.30;25.63;;;;;;;;;;5070544;28;20028;-75
2023/06/18 01:04:33;;;;;;;27.92;25.30;;;;;;;;;;5074663;28;20031;-77
2023/06/18 01:07:01;;;;;;;26.25;23.75;;;;;;;;;;5081570;28;20280;-78
2023/06/18 01:09:27;;;;;;;29.42;26.40;;;;;;;;;;5083414;28;20035;-78
2023/06/18 01:11:53;;;;;;;25.85;23.60;;;;;;;;;;5081620;28;20036;-81
2023/06/18 01:14:21;;;;;;;25.40;22.95;;;;;;;;;;5084650;28;20012;-80
2023/06/18 01:16:47;;;;;;;27.23;24.77;;;;;;;;;;5071589;28;20035;-77
2023/06/18 01:19:23;;;;;;;25.98;23.42;;;;;;;;;;5079315;28;20024;-80
2023/06/18 01:21:52;;;;;;;26.50;24.10;;;;;;;;;;5078950;28;20027;-77
2023/06/18 01:24:19;;;;;;;;;;;;;;;;;;5069952;28;20035;-76
2023/06/18 01:26:45;;;;;;;25.77;23.38;;;;;;;;;;5078746;28;19915;-75
2023/06/18 01:29:12;;;;;;;26.58;24.00;;;;;;;;;;5082901;28;20020;-77
2023/06/18 01:31:38;;;;;;;28.10;25.63;;;;;;;;;;5074972;28;20047;-79
2023/06/18 01:34:04;;;;;;;29.77;27.08;;;;;;;;;;5078423;28;20048;-77
2023/06/18 01:36:37;;;;;;;27.73;25.20;;;;;;;;;;5084464;28;20048;-77
2023/06/18 01:39:10;;;;;;;27.85;25.25;;;;;;;;;;5075218;28;20024;-82
2023/06/18 01:41:36;;;;;;;28.83;26.13;;;;;;;;;;5079028;28;20447;-77
2023/06/18 01:44:06;;;;;;;27.92;25.17;;;;;;;;;;5080330;28;20024;-75
2023/06/18 01:46:31;;;;;;;28.77;26.02;;;;;;;;;;5073744;28;20062;-76
2023/06/18 01:48:58;;;;;;;27.40;24.73;;;;;;;;;;5079608;28;20031;-75
2023/06/18 01:51:24;;;;;;;28.13;25.73;;;;;;;;;;5080650;28;20020;-76
2023/06/18 01:53:51;;;;;;;29.38;26.63;;;;;;;;;;5077665;28;20049;-79
2023/06/18 01:56:17;;;;;;;30.58;27.48;;;;;;;;;;5066842;28;20359;-78
2023/06/18 01:58:43;;;;;;;28.00;25.48;;;;;;;;;;5074037;28;20055;-77
2023/06/18 02:01:17;;;;;;;28.67;26.17;;;;;;;;;;5078887;28;20020;-76
2023/06/18 02:03:42;;;;;;;31.02;28.13;;;;;;;;;;5071654;28;20161;-77
2023/06/18 02:06:07;;;;;;;29.92;27.33;;;;;;;;;;5080010;28;20925;-76
2023/06/18 02:08:33;;;;;;;28.48;25.92;;;;;;;;;;5082822;28;20025;-77
2023/06/18 02:10:59;;;;;;;29.25;26.35;;;;;;;;;;5081001;28;20059;-79
2023/06/18 02:13:24;;;;;;;32.42;29.38;;;;;;;;;;5078760;28;20068;-79
2023/06/18 02:15:50;;;;;;;28.35;25.63;;;;;;;;;;5068351;28;20100;-77
2023/06/18 02:18:15;;;;;;;30.02;27.13;;;;;;;;;;5074868;28;20024;-76
2023/06/18 02:20:41;;;;;;;31.70;28.90;;;;;;;;;;5080738;28;20169;-77
2023/06/18 02:23:07;;;;;;;28.83;26.17;;;;;;;;;;5078578;28;20027;-79
2023/06/18 02:25:33;;;;;;;29.70;26.00;;;;;;;;;;5070288;28;20032;-75
2023/06/18 02:28:00;;;;;;;28.20;25.77;;;;;;;;;;5073503;28;20050;-77
2023/06/18 02:30:25;;;;;;;28.83;25.95;;;;;;;;;;5070359;28;20035;-78
2023/06/18 02:32:52;;;;;;;27.25;24.45;;;;;;;;;;5070350;28;20032;-76
2023/06/18 02:35:18;;;;;;;29.33;26.63;;;;;;;;;;5079340;28;20020;-75
2023/06/18 02:37:43;;;;;;;28.05;25.42;;;;;;;;;;5080612;28;20081;-80
2023/06/18 02:40:11;;;;;;;28.23;25.52;;;;;;;;;;5078336;28;20063;-75
2023/06/18 02:42:36;;;;;;;26.67;24.35;;;;;;;;;;5081951;28;20024;-76
2023/06/18 02:45:02;;;;;;;27.80;25.10;;;;;;;;;;5082531;28;20693;-76
2023/06/18 02:47:28;;;;;;;26.55;23.98;;;;;;;;;;5069665;28;20031;-76
2023/06/18 02:49:53;;;;;;;27.73;25.10;;;;;;;;;;5073472;28;20032;-75
2023/06/18 02:52:18;;;;;;;27.10;24.50;;;;;;;;;;5074456;28;20097;-75
2023/06/18 02:54:44;;;;;;;27.85;25.42;;;;;;;;;;5071004;28;20020;-77
2023/06/18 02:57:09;;;;;;;27.25;24.85;;;;;;;;;;5080674;28;20032;-77
2023/06/18 02:59:35;;;;;;;30.15;27.17;;;;;;;;;;5078787;28;20062;-75
2023/06/18 03:02:04;;;;;;;27.05;24.65;;;;;;;;;;5072736;28;20024;-78
2023/06/18 03:04:30;;;;;;;27.55;25.05;;;;;;;;;;5068402;28;20027;-75
2023/06/18 03:06:57;;;;;;;28.90;26.38;;;;;;;;;;5078180;28;20032;-74
2023/06/18 03:09:23;;;;;;;28.45;25.83;;;;;;;;;;5070781;28;20073;-75
2023/06/18 03:11:48;;;;;;;29.65;27.05;;;;;;;;;;5079039;28;20119;-78
2023/06/18 03:14:13;;;;;;;27.90;25.40;;;;;;;;;;5080699;28;20015;-75
2023/06/18 03:16:38;;;;;;;29.45;26.67;;;;;;;;;;5072543;28;20020;-75
2023/06/18 03:19:04;;;;;;;27.30;25.00;;;;;;;;;;5071301;28;20036;-76
2023/06/18 03:21:29;;;;;;;27.08;24.45;;;;;;;;;;5077154;28;20031;-79
2023/06/18 03:23:55;;;;;;;27.27;24.75;;;;;;;;;;5080388;28;20304;-77
2023/06/18 03:26:21;;;;;;;26.77;24.38;;;;;;;;;;5080523;28;20342;-77
2023/06/18 03:28:47;;;;;;;25.67;23.27;;;;;;;;;;5074461;28;20028;-76
2023/06/18 03:31:13;;;;;;;25.95;23.65;;;;;;;;;;5069596;28;20055;-75
2023/06/18 03:33:38;;;;;;;29.58;27.08;;;;;;;;;;5072423;28;20030;-76
2023/06/18 03:36:05;;;;;;;28.98;26.42;;;;;;;;;;5067686;28;20097;-80
2023/06/18 03:38:31;;;;;;;28.60;25.90;;;;;;;;;;5079547;28;20344;-78
2023/06/18 03:40:56;;;;;;;28.13;25.52;;;;;;;;;;5080576;28;20034;-78
2023/06/18 03:43:22;;;;;;;27.77;25.40;;;;;;;;;;5073058;28;20051;-76
2023/06/18 03:45:47;;;;;;;27.73;25.08;;;;;;;;;;5069102;28;20060;-77
2023/06/18 03:48:12;;;;;;;28.42;25.90;;;;;;;;;;5077044;28;20424;-76
2023/06/18 03:50:38;;;;;;;28.40;25.83;;;;;;;;;;5083505;28;20115;-78
2023/06/18 03:53:03;;;;;;;26.90;24.38;;;;;;;;;;5076500;28;20020;-76
2023/06/18 03:55:28;;;;;;;28.23;25.67;;;;;;;;;;5075509;28;20101;-81
2023/06/18 03:57:54;;;;;;;26.52;24.05;;;;;;;;;;5084095;28;20056;-77
2023/06/18 04:00:19;;;;;;;26.65;24.25;;;;;;;;;;5072443;28;20042;-77
2023/06/18 04:02:44;;;;;;;28.58;26.08;;;;;;;;;;5073170;28;20024;-78
2023/06/18 04:05:10;;;;;;;27.38;24.65;;;;;;;;;;5083120;28;20665;-77
2023/06/18 04:07:36;;;;;;;28.05;24.15;;;;;;;;;;5075014;28;20023;-75
2023/06/18 04:10:01;;;;;;;27.63;25.25;;;;;;;;;;5063656;28;20379;-77
2023/06/18 04:12:27;;;;;;;26.67;23.85;;;;;;;;;;5060580;28;20016;-76
2023/06/18 04:14:52;;;;;;;27.70;25.10;;;;;;;;;;5063517;28;20036;-75
2023/06/18 04:17:17;;;;;;;25.13;22.63;;;;;;;;;;5061013;28;20056;-78
2023/06/18 04:19:43;;;;;;;27.02;24.60;;;;;;;;;;5065625;28;20428;-77
2023/06/18 04:22:08;;;;;;;25.73;23.42;;;;;;;;;;5061790;28;20474;-80
2023/06/18 04:24:33;;;;;;;26.30;23.73;;;;;;;;;;5065355;28;20082;-78
2023/06/18 04:26:59;;;;;;;28.05;25.30;;;;;;;;;;5072304;28;20032;-77
2023/06/18 04:29:24;;;;;;;25.83;23.38;;;;;;;;;;5065197;28;20020;-79
2023/06/18 04:31:50;;;;;;;26.88;24.35;;;;;;;;;;5063516;28;20040;-77
2023/06/18 04:34:15;;;;;;;24.73;22.35;;;;;;;;;;5068968;28;20107;-75
2023/06/18 04:36:40;;;;;;;25.98;23.67;;;;;;;;;;5062800;28;20021;-77
2023/06/18 04:39:06;;;;;;;26.73;24.30;;;;;;;;;;5062766;28;20028;-77
2023/06/18 04:41:31;;;;;;;25.15;22.70;;;;;;;;;;5058734;28;20109;-77
2023/06/18 04:43:57;;;;;;;24.98;22.65;;;;;;;;;;5062993;28;20070;-78
2023/06/18 04:46:22;;;;;;;25.88;23.35;;;;;;;;;;5067325;28;20024;-79
2023/06/18 04:48:47;;;;;;;25.20;22.75;;;;;;;;;;5079531;28;20035;-83
2023/06/18 04:51:13;;;;;;;24.55;22.10;;;;;;;;;;5078805;28;20119;-79
2023/06/18 04:53:38;;;;;;;24.50;22.10;;;;;;;;;;5061313;28;20070;-78
2023/06/18 04:56:03;;;;;;;24.80;22.52;;;;;;;;;;5058713;28;20024;-75
2023/06/18 04:58:34;;;;;;;24.67;22.48;;;;;;;;;;5061032;28;20045;-78
2023/06/18 05:01:01;;;;;;;25.33;23.02;;;;;;;;;;5064279;28;20028;-76
2023/06/18 05:03:27;;;;;;;24.90;22.30;;;;;;;;;;5071253;28;20023;-76
2023/06/18 05:05:52;;;;;;;25.23;23.08;;;;;;;;;;5082905;28;20036;-78
2023/06/18 05:08:17;;;;;;;24.40;22.17;;;;;;;;;;5083356;28;20394;-79
2023/06/18 05:10:43;;;;;;;25.42;23.00;;;;;;;;;;5083647;28;20115;-78
2023/06/18 05:13:08;;;;;;;24.85;22.55;;;;;;;;;;5084080;28;20385;-81
2023/06/18 05:15:33;;;;;;;26.10;23.60;;;;;;;;;;5073776;28;20111;-77
2023/06/18 05:17:59;;;;;;;26.08;23.73;;;;;;;;;;5077579;28;20036;-76
2023/06/18 05:20:24;;;;;;;24.73;22.52;;;;;;;;;;5061435;28;20036;-75
2023/06/18 05:22:50;;;;;;;25.13;22.92;;;;;;;;;;5063396;28;20028;-76
2023/06/18 05:25:16;;;;;;;25.92;23.52;;;;;;;;;;5063885;28;20051;-77
2023/06/18 05:27:41;;;;;;;24.35;22.15;;;;;;;;;;5061839;28;20453;-78
2023/06/18 05:30:07;;;;;;;23.02;20.95;;;;;;;;;;5064682;28;20028;-81
2023/06/18 05:32:32;;;;;;;24.00;21.80;;;;;;;;;;5068223;28;20024;-79
2023/06/18 05:34:58;;;;;;;23.35;21.15;;;;;;;;;;5082298;28;20085;-77
2023/06/18 05:37:23;;;;;;;23.08;21.05;;;;;;;;;;5071022;28;20042;-76
2023/06/18 05:39:52;;;;;;;24.42;22.33;;;;;;;;;;5081721;28;20032;-76
2023/06/18 05:42:17;;;;;;;25.30;23.15;;;;;;;;;;5081764;28;20036;-80
2023/06/18 05:44:43;;;;;;;26.52;23.70;;;;;;;;;;5081987;28;20055;-76
2023/06/18 05:47:08;;;;;;;24.75;22.50;;;;;;;;;;5071548;28;20089;-76
2023/06/18 05:49:33;;;;;;;24.90;22.70;;;;;;;;;;5081299;28;20135;-74
2023/06/18 05:51:59;;;;;;;25.17;22.95;;;;;;;;;;5080150;28;20027;-76
2023/06/18 05:54:25;;;;;;;23.80;21.65;;;;;;;;;;5072703;28;20024;-77
2023/06/18 05:56:51;;;;;;;24.50;22.27;;;;;;;;;;5078237;28;20040;-79
2023/06/18 05:59:16;;;;;;;23.25;21.25;;;;;;;;;;5071187;28;20044;-79
2023/06/18 06:01:42;;;;;;;23.45;21.23;;;;;;;;;;5068864;28;20106;-78
2023/06/18 06:04:07;;;;;;;23.33;21.35;;;;;;;;;;5079428;28;20093;-79
2023/06/18 06:06:33;;;;;;;23.80;21.70;;;;;;;;;;5078209;28;20024;-79
2023/06/18 06:08:59;;;;;;;22.60;20.60;;;;;;;;;;5069908;28;20027;-79
2023/06/18 06:11:25;;;;;;;22.65;20.65;;;;;;;;;;5076225;28;20028;-78
2023/06/18 06:13:51;;;;;;;23.02;21.02;;;;;;;;;;5083381;28;20027;-79
2023/06/18 06:16:16;;;;;;;21.98;20.10;;;;;;;;;;5074225;28;20034;-78
2023/06/18 06:18:41;;;;;;;21.95;20.05;;;;;;;;;;5071266;28;20024;-78
2023/06/18 06:21:07;;;;;;;22.13;20.33;;;;;;;;;;5073291;28;20103;-79
2023/06/18 06:23:32;;;;;;;21.95;20.15;;;;;;;;;;5079601;28;20442;-77
2023/06/18 06:25:57;;;;;;;22.73;19.95;;;;;;;;;;5082488;28;20580;-77
2023/06/18 06:28:23;;;;;;;21.73;19.85;;;;;;;;;;5079510;28;20035;-75
2023/06/18 06:30:48;;;;;;;22.25;20.20;;;;;;;;;;5077012;28;20501;-77
2023/06/18 06:33:14;;;;;;;26.15;23.65;;;;;;;;;;5072800;28;20029;-78
2023/06/18 06:35:39;;;;;;;23.67;21.42;;;;;;;;;;5080867;28;20024;-78
2023/06/18 06:38:04;;;;;;;23.67;21.42;;;;;;;;;;5069226;28;20016;-79
2023/06/18 06:40:30;;;;;;;22.70;20.63;;;;;;;;;;5082175;28;20088;-76
2023/06/18 06:42:55;;;;;;;21.90;19.90;;;;;;;;;;5081784;28;20435;-79
2023/06/18 06:45:21;;;;;;;22.42;20.52;;;;;;;;;;5080076;28;20055;-77
2023/06/18 06:47:47;;;;;;;19.77;18.15;;;;;;;;;;5069479;28;20043;-76
2023/06/18 06:50:12;;;;;;;20.88;18.98;;;;;;;;;;5079641;28;20020;-77
2023/06/18 06:52:37;;;;;;;19.45;17.85;;;;;;;;;;5080249;28;20074;-80
2023/06/18 06:55:03;;;;;;;19.98;18.27;;;;;;;;;;5066420;28;20112;-78
2023/06/18 06:57:28;;;;;;;21.17;19.13;;;;;;;;;;5072291;28;20044;-76
2023/06/18 06:59:53;;;;;;;19.63;17.98;;;;;;;;;;5077708;28;20416;-76
2023/06/18 07:02:19;;;;;;;18.98;17.48;;;;;;;;;;5070114;28;20345;-76
2023/06/18 07:04:47;;;;;;;20.45;18.55;;;;;;;;;;5069943;28;21011;-79
2023/06/18 07:07:13;;;;;;;20.30;18.40;;;;;;;;;;5080632;28;20019;-74
2023/06/18 07:09:39;;;;;;;20.38;18.42;;;;;;;;;;5076956;28;20051;-74
2023/06/18 07:12:04;;;;;;;19.52;17.73;;;;;;;;;;5079354;28;20043;-76
2023/06/18 07:14:29;;;;;;;20.88;18.98;;;;;;;;;;5081173;28;20118;-78
2023/06/18 07:16:55;;;;;;;23.77;21.42;;;;;;;;;;5071838;28;20081;-78
2023/06/18 07:19:20;;;;;;;23.52;21.33;;;;;;;;;;5077835;28;20024;-77
2023/06/18 07:21:45;;;;;;;24.13;21.70;;;;;;;;;;5080124;28;20032;-77
2023/06/18 07:24:11;;;;;;;21.45;19.48;;;;;;;;;;5080669;28;20024;-77
2023/06/18 07:26:36;;;;;;;22.10;20.08;;;;;;;;;;5078752;28;20046;-76
2023/06/18 07:29:01;;;;;;;21.25;19.20;;;;;;;;;;5069572;28;20122;-76
2023/06/18 07:31:27;;;;;;;20.42;18.70;;;;;;;;;;5076417;28;20039;-78
2023/06/18 07:33:53;;;;;;;20.60;18.80;;;;;;;;;;5073775;28;20028;-79
2023/06/18 07:36:18;;;;;;;18.45;16.83;;;;;;;;;;5080452;28;20043;-78
2023/06/18 07:38:43;;;;;;;18.25;16.60;;;;;;;;;;5079082;28;20024;-78
2023/06/18 07:41:09;;;;;;;18.50;16.80;;;;;;;;;;5064219;28;20031;-78
2023/06/18 07:43:34;;;;;;;18.05;16.52;;;;;;;;;;5059894;28;20028;-78
2023/06/18 07:46:00;;;;;;;16.23;14.77;;;;;;;;;;5066490;28;20623;-78
2023/06/18 07:48:25;;;;;;;17.25;15.75;;;;;;;;;;5073599;28;20428;-76
2023/06/18 07:50:50;;;;;;;24.52;22.13;;;;;;;;;;5077750;28;20063;-76
2023/06/18 07:53:16;;;;;;;16.70;15.30;;;;;;;;;;5063422;28;20383;-74
2023/06/18 07:55:41;;;;;;;16.60;15.00;;;;;;;;;;5065950;28;20040;-76
2023/06/18 07:58:06;;;;;;;15.05;13.75;;;;;;;;;;5068752;28;20056;-77
2023/06/18 08:00:32;;;;;;;14.88;13.68;;;;;;;;;;5078610;28;20062;-76
2023/06/18 08:02:57;;;;;;;16.08;14.57;;;;;;;;;;5067725;28;20105;-77
2023/06/18 08:05:22;;;;;;;15.07;13.80;;;;;;;;;;5079571;28;20032;-78
2023/06/18 08:07:48;;;;;;;16.25;14.60;;;;;;;;;;5075296;28;20035;-77
2023/06/18 08:10:13;;;;;;;14.18;13.07;;;;;;;;;;5071283;28;20549;-75
2023/06/18 08:12:38;;;;;;;13.88;12.68;;;;;;;;;;5065191;28;20443;-76
2023/06/18 08:15:04;;;;;;;14.20;12.80;;;;;;;;;;5073859;28;20032;-77
2023/06/18 08:17:29;;;;;;;15.23;13.73;;;;;;;;;;5057965;28;20398;-75
2023/06/18 08:19:55;;;;;;;14.65;13.32;;;;;;;;;;5068379;28;20125;-76
2023/06/18 08:22:20;;;;;;;13.93;12.55;;;;;;;;;;5065566;28;20110;-76
2023/06/18 08:24:45;;;;;;;14.20;12.90;;;;;;;;;;5072196;28;20024;-76
2023/06/18 08:27:15;;;;;;;14.48;13.18;;;;;;;;;;5080531;28;20145;-75
2023/06/18 08:29:40;;;;;;;16.48;12.40;;;;;;;;;;5077227;28;20111;-78
2023/06/18 08:32:06;;;;;;;14.07;12.82;;;;;;;;;;5067816;28;20210;-76
2023/06/18 08:34:36;;;;;;;13.55;12.35;;;;;;;;;;5074771;28;20039;-74
2023/06/18 08:37:02;;;;;;;14.77;13.35;;;;;;;;;;5067517;28;20035;-77
2023/06/18 08:39:29;;;;;;;14.18;13.07;;;;;;;;;;5070362;28;20028;-77
2023/06/18 08:41:54;;;;;;;15.23;13.35;;;;;;;;;;5071700;28;20035;-77
2023/06/18 08:44:23;;;;;;;13.93;12.63;;;;;;;;;;5082468;28;20025;-77
2023/06/18 08:46:49;;;;;;;13.75;12.63;;;;;;;;;;5074846;28;20016;-77
2023/06/18 08:49:16;;;;;;;15.40;13.93;;;;;;;;;;5079275;28;20039;-78
2023/06/18 08:51:43;;;;;;;14.32;12.63;;;;;;;;;;5082225;28;20442;-75
2023/06/18 08:54:11;;;;;;;13.60;12.35;;;;;;;;;;5070976;28;20020;-76
2023/06/18 08:56:42;;;;;;;14.43;13.05;;;;;;;;;;5076974;28;20027;-77
2023/06/18 08:59:07;;;;;;;13.80;12.60;;;;;;;;;;5080220;28;20044;-76
2023/06/18 09:01:32;;;;;;;14.95;12.48;;;;;;;;;;5071300;28;20435;-78
2023/06/18 09:03:58;;;;;;;14.18;12.95;;;;;;;;;;5066794;28;20077;-77
2023/06/18 09:06:23;;;;;;;14.45;13.10;;;;;;;;;;5072858;28;20120;-76
2023/06/18 09:08:49;;;;;;;15.15;13.68;;;;;;;;;;5075880;28;20023;-77
2023/06/18 09:11:14;;;;;;;14.02;12.75;;;;;;;;;;5078814;28;20056;-77
2023/06/18 09:13:41;;;;;;;13.77;12.57;;;;;;;;;;5068290;28;20024;-77
2023/06/18 09:16:07;;;;;;;12.77;11.68;;;;;;;;;;5073599;28;20736;-77
2023/06/18 09:18:33;;;;;;;15.02;12.55;;;;;;;;;;5076203;28;20902;-77
2023/06/18 09:20:58;;;;;;;14.30;12.88;;;;;;;;;;5072827;28;20102;-76
2023/06/18 09:23:24;;;;;;;13.10;11.82;;;;;;;;;;5075599;28;20036;-77
2023/06/18 09:25:53;;;;;;;12.18;10.98;;;;;;;;;;5066883;28;20031;-77
2023/06/18 09:28:19;;;;;;;12.70;11.60;;;;;;;;;;5068066;28;20111;-77
2023/06/18 09:31:11;;;;;;;13.27;12.05;;;;;;;;;;5067361;28;20043;-77
2023/06/18 09:33:36;;;;;;;13.13;11.93;;;;;;;;;;5066420;28;20194;-78
2023/06/18 09:36:06;;;;;;;12.48;11.38;;;;;;;;;;5070851;28;20404;-77
2023/06/18 09:38:31;;;;;;;;;;;;;;;;;;5069570;28;20024;-76
2023/06/18 09:40:56;;;;;;;12.27;11.10;;;;;;;;;;5068799;28;19969;-78
2023/06/18 09:43:22;;;;;;;11.60;10.50;;;;;;;;;;5067564;28;20036;-77
2023/06/18 09:45:47;;;;;;;12.48;11.38;;;;;;;;;;5077126;28;20115;-78
2023/06/18 09:48:13;;;;;;;12.48;11.32;;;;;;;;;;5072905;28;20104;-78
2023/06/18 09:50:38;;;;;;;12.55;11.45;;;;;;;;;;5068256;28;20591;-76
2023/06/18 09:53:04;;;;;;;11.57;10.48;;;;;;;;;;5065815;28;20047;-77
2023/06/18 09:55:32;;;;;;;11.65;10.65;;;;;;;;;;5069072;28;20459;-77
2023/06/18 09:57:59;;;;;;;11.77;10.43;;;;;;;;;;5066880;28;20136;-78
2023/06/18 10:00:25;;;;;;;11.48;10.48;;;;;;;;;;5070566;28;20462;-77
2023/06/18 10:02:51;;;;;;;10.88;9.77;;;;;;;;;;5071749;28;20050;-78
2023/06/18 10:05:16;;;;;;;11.15;10.02;;;;;;;;;;5065722;28;20129;-77
2023/06/18 10:07:42;;;;;;;10.95;10.05;;;;;;;;;;5072906;28;20043;-79
2023/06/18 10:10:13;;;;;;;10.48;9.57;;;;;;;;;;5068314;28;20016;-76
2023/06/18 10:12:40;;;;;;;10.45;9.52;;;;;;;;;;5067885;28;20032;-78
2023/06/18 10:15:06;;;;;;;11.32;9.98;;;;;;;;;;5073131;28;20042;-78
2023/06/18 10:17:33;;;;;;;9.45;8.55;;;;;;;;;;5066646;28;20028;-75
2023/06/18 10:19:59;;;;;;;10.57;8.90;;;;;;;;;;5066732;28;20080;-77
2023/06/18 10:22:26;;;;;;;10.45;9.27;;;;;;;;;;5065317;28;20024;-77
2023/06/18 10:25:01;;;;;;;8.77;7.93;;;;;;;;;;5066926;28;20024;-78
2023/06/18 10:27:27;;;;;;;9.95;9.00;;;;;;;;;;5067788;28;20028;-76
2023/06/18 10:29:52;;;;;;;9.48;8.60;;;;;;;;;;5066774;28;20028;-76
2023/06/18 10:32:18;;;;;;;9.52;8.52;;;;;;;;;;5067737;28;20404;-77
2023/06/18 10:34:43;;;;;;;8.65;7.85;;;;;;;;;;5067349;28;20075;-76
2023/06/18 10:37:10;;;;;;;9.32;8.40;;;;;;;;;;5067210;28;20439;-77
2023/06/18 10:39:35;;;;;;;10.88;8.43;;;;;;;;;;5065390;28;20025;-74
2023/06/18 10:42:11;;;;;;;7.28;6.78;;;;;;;;;;5066083;28;20357;-75
2023/06/18 10:44:45;;;;;;;8.63;7.72;;;;;;;;;;5067801;28;20291;-75
2023/06/18 10:47:20;;;;;;;8.75;7.78;;;;;;;;;;5067419;28;20108;-75
2023/06/18 10:50:09;;;;;;;9.50;8.55;;;;;;;;;;5066562;28;20012;-76
2023/06/18 10:52:34;;;;;;;8.80;7.88;;;;;;;;;;5061847;28;20044;-77
2023/06/18 10:55:35;;;;;;;12.57;7.10;;;;;;;;;;5068172;28;20043;-77
2023/06/18 10:58:01;;;;;;;8.55;7.22;;;;;;;;;;5044654;28;20387;-76
2023/06/18 11:00:31;;;;;;;9.07;7.32;;;;;;;;;;5045287;28;20037;-78
2023/06/18 11:02:58;;;;;;;7.88;6.43;;;;;;;;;;5044823;28;20025;-76
2023/06/18 11:05:33;;;;;;;7.82;7.00;;;;;;;;;;5043344;28;20075;-77
2023/06/18 11:08:08;;;;;;;7.82;7.07;;;;;;;;;;5043319;28;20048;-77
2023/06/18 11:10:34;;;;;;;7.18;6.57;;;;;;;;;;5044359;28;20032;-77
2023/06/18 11:13:04;;;;;;;7.70;6.90;;;;;;;;;;5044289;28;20036;-74
2023/06/18 11:15:30;;;;;;;7.00;6.40;;;;;;;;;;5043405;28;20474;-77
2023/06/18 11:18:00;;;;;;;7.00;6.47;;;;;;;;;;5042912;28;20036;-75
2023/06/18 11:20:26;;;;;;;6.90;6.40;;;;;;;;;;5045380;28;20040;-75
2023/06/18 11:22:55;;;;;;;7.00;6.30;;;;;;;;;;5044736;28;20085;-76
2023/06/18 11:25:21;;;;;;;7.75;7.00;;;;;;;;;;5045319;28;20039;-76
2023/06/18 11:27:48;;;;;;;7.47;6.60;;;;;;;;;;5044391;28;20052;-76
2023/06/18 11:30:13;;;;;;;8.10;6.28;;;;;;;;;;5043129;28;20024;-75
2023/06/18 11:32:40;;;;;;;7.28;6.22;;;;;;;;;;5061103;28;20044;-77
2023/06/18 11:35:08;;;;;;;7.20;6.30;;;;;;;;;;5066938;28;20027;-76
2023/06/18 11:37:34;;;;;;;8.13;7.00;;;;;;;;;;5066526;28;20748;-76
2023/06/18 11:40:00;;;;;;;7.43;6.75;;;;;;;;;;5066386;28;20034;-76
2023/06/18 11:42:26;;;;;;;7.40;6.80;;;;;;;;;;5065478;28;20089;-76
2023/06/18 11:44:52;;;;;;;7.88;6.45;;;;;;;;;;5065942;28;20496;-76
2023/06/18 11:47:18;;;;;;;7.13;6.53;;;;;;;;;;5078236;28;20016;-76
2023/06/18 11:49:44;;;;;;;7.13;6.45;;;;;;;;;;5076624;28;20035;-78
2023/06/18 11:52:14;;;;;;;6.95;6.22;;;;;;;;;;5071989;28;20036;-76
2023/06/18 11:54:40;;;;;;;7.70;6.93;;;;;;;;;;5065580;28;20036;-77
2023/06/18 11:57:15;;;;;;;7.05;6.40;;;;;;;;;;5065971;28;20016;-77
2023/06/18 11:59:41;;;;;;;6.55;6.00;;;;;;;;;;5066606;28;20040;-77
2023/06/18 12:02:17;;;;;;;6.75;6.18;;;;;;;;;;5074301;28;20088;-78
2023/06/18 12:04:43;;;;;;;5.97;5.47;;;;;;;;;;5068455;28;20024;-77
2023/06/18 12:07:19;;;;;;;7.45;6.00;;;;;;;;;;5077064;28;20359;-76
2023/06/18 12:09:44;;;;;;;7.20;6.50;;;;;;;;;;5079787;28;20417;-77
2023/06/18 12:12:10;;;;;;;6.57;6.07;;;;;;;;;;5074269;28;20040;-77
2023/06/18 12:14:41;;;;;;;6.88;6.20;;;;;;;;;;5069932;28;20036;-75
2023/06/18 12:17:09;;;;;;;7.22;6.53;;;;;;;;;;5069687;28;20111;-77
2023/06/18 12:19:36;;;;;;;6.65;6.05;;;;;;;;;;5070397;28;20039;-78
2023/06/18 12:22:02;;;;;;;6.00;5.50;;;;;;;;;;5069630;28;20120;-76
2023/06/18 12:24:28;;;;;;;6.45;5.72;;;;;;;;;;5067856;28;20169;-75
2023/06/18 12:26:54;;;;;;;7.72;5.55;;;;;;;;;;5071906;28;20422;-77
2023/06/18 12:29:19;;;;;;;6.72;5.68;;;;;;;;;;5082649;28;20028;-78
2023/06/18 12:31:59;;;;;;;6.88;6.00;;;;;;;;;;5074224;28;20032;-76
2023/06/18 12:34:25;;;;;;;6.43;5.82;;;;;;;;;;5071252;28;20035;-79
2023/06/18 12:36:53;;;;;;;7.63;5.93;;;;;;;;;;5081543;28;20040;-78
2023/06/18 12:39:18;;;;;;;6.37;5.77;;;;;;;;;;5067962;28;20039;-78
2023/06/18 12:41:44;;;;;;;6.07;5.53;;;;;;;;;;5068613;28;20032;-78
2023/06/18 12:44:09;;;;;;;5.95;5.40;;;;;;;;;;5068371;28;20032;-76
2023/06/18 12:46:35;;;;;;;6.60;5.95;;;;;;;;;;5069022;28;20016;-77
2023/06/18 12:49:02;;;;;;;6.22;5.72;;;;;;;;;;5070583;28;20071;-77
2023/06/18 12:51:43;;;;;;;5.90;5.30;;;;;;;;;;5070456;28;20088;-77
2023/06/18 12:54:13;;;;;;;6.35;5.32;;;;;;;;;;5067693;28;20393;-75
2023/06/18 12:56:46;;;;;;;5.72;5.32;;;;;;;;;;5069242;28;20035;-78
2023/06/18 12:59:16;;;;;;;5.80;5.35;;;;;;;;;;5069906;28;20040;-75
2023/06/18 13:01:42;;;;;;;6.60;6.03;;;;;;;;;;5079865;28;20032;-75
2023/06/18 13:04:07;;;;;;;6.35;5.85;;;;;;;;;;5077769;28;20093;-77
2023/06/18 13:06:33;;;;;;;6.05;5.55;;;;;;;;;;5080910;28;20058;-76
2023/06/18 13:08:59;;;;;;;6.75;5.85;;;;;;;;;;5079089;28;20127;-77
2023/06/18 13:11:24;;;;;;;5.45;5.05;;;;;;;;;;5078976;28;20422;-78
2023/06/18 13:13:50;;;;;;;6.72;5.18;;;;;;;;;;5069021;28;20035;-77
2023/06/18 13:16:16;;;;;;;5.63;4.88;;;;;;;;;;5068339;28;20031;-78
2023/06/18 13:18:41;;;;;;;5.88;5.35;;;;;;;;;;5068667;28;20089;-76
2023/06/18 13:21:06;;;;;;;5.80;5.30;;;;;;;;;;5070108;28;20398;-77
2023/06/18 13:23:32;;;;;;;6.28;5.72;;;;;;;;;;5067093;28;20032;-76
2023/06/18 13:25:57;;;;;;;5.80;5.30;;;;;;;;;;5068855;28;20040;-76
2023/06/18 13:28:23;;;;;;;7.63;5.53;;;;;;;;;;5069363;28;20404;-76
2023/06/18 13:30:48;;;;;;;6.05;5.35;;;;;;;;;;5069290;28;20362;-75
2023/06/18 13:33:14;;;;;;;6.00;5.50;;;;;;;;;;5067773;28;20467;-80
2023/06/18 13:35:39;;;;;;;5.93;5.43;;;;;;;;;;5069087;28;20459;-77
2023/06/18 13:38:04;;;;;;;8.30;5.53;;;;;;;;;;5068996;28;20038;-76
2023/06/18 13:40:30;;;;;;;5.85;5.35;;;;;;;;;;5073661;28;20037;-78
2023/06/18 13:42:55;;;;;;;5.60;5.18;;;;;;;;;;5067272;28;20020;-75
2023/06/18 13:45:21;;;;;;;5.65;5.15;;;;;;;;;;5077228;28;20492;-76
2023/06/18 13:47:46;;;;;;;6.68;5.22;;;;;;;;;;5077981;28;20099;-77
2023/06/18 13:50:11;;;;;;;6.13;5.28;;;;;;;;;;5074585;28;20031;-78
2023/06/18 13:52:37;;;;;;;7.78;5.70;;;;;;;;;;5081840;28;21080;-77
2023/06/18 13:55:02;;;;;;;6.60;5.82;;;;;;;;;;5077818;28;20017;-77
2023/06/18 13:57:27;;;;;;;6.32;5.60;;;;;;;;;;5080840;28;20073;-76
2023/06/18 13:59:53;;;;;;;7.22;5.78;;;;;;;;;;5081017;28;20028;-76
2023/06/18 14:02:18;;;;;;;5.78;5.20;;;;;;;;;;5080655;28;20511;-76
2023/06/18 14:04:45;;;;;;;5.95;5.40;;;;;;;;;;5081581;28;20667;-76
2023/06/18 14:07:10;;;;;;;6.18;5.60;;;;;;;;;;5077704;28;20019;-76
2023/06/18 14:09:36;;;;;;;6.43;5.75;;;;;;;;;;5079860;28;20022;-75
2023/06/18 14:12:02;;;;;;;5.90;5.32;;;;;;;;;;5081183;28;20040;-75
2023/06/18 14:14:28;;;;;;;6.22;5.65;;;;;;;;;;5080477;28;20020;-77
2023/06/18 14:16:53;;;;;;;7.10;5.45;;;;;;;;;;5080880;28;20042;-77
2023/06/18 14:19:19;;;;;;;6.45;5.20;;;;;;;;;;5081359;28;20034;-76
2023/06/18 14:21:44;;;;;;;5.93;5.43;;;;;;;;;;5080271;28;20051;-78